Time;durP1;ratioP1;P1;durP2;ratioP2;P2;SDS_P1;SDS_P2;PMS_P1;PMS_P2;Temp;Humidity;BMP_temperature;BMP_pressure;BME280_temperature;BME280_humidity;BME280_pressure;Samples;Min_cycle;Max_cycle;Signal;HPM_P1;HPM_P2
2021/03/01 00:00:34;;;;;;;13.90;6.00;;;;;;;3.48;88.38;95806.84;10322810;28;20388;-73
2021/03/01 00:05:34;;;;;;;13.13;6.93;;;;;;;3.49;86.45;95802.34;10322541;28;20380;-73
2021/03/01 00:10:35;;;;;;;13.07;6.40;;;;;;;3.38;87.73;95809.09;10313848;28;20290;-73
2021/03/01 00:15:35;;;;;;;13.38;7.25;;;;;;;3.19;88.14;95806.16;10322669;28;20293;-73
2021/03/01 00:20:36;;;;;;;13.80;7.82;;;;;;;3.14;89.68;95798.00;10320625;28;20399;-73
2021/03/01 00:25:38;;;;;;;12.47;6.63;;;;;;;2.99;92.14;95792.03;10322168;28;20026;-73
2021/03/01 00:30:39;;;;;;;14.25;7.57;;;;;;;2.96;92.53;95789.75;10329378;28;20288;-73
2021/03/01 00:35:39;;;;;;;17.13;7.28;;;;;;;2.97;91.50;95791.41;10329659;28;20508;-73
2021/03/01 00:40:40;;;;;;;13.90;7.15;;;;;;;2.92;91.07;95781.38;10328336;28;20054;-73
2021/03/01 00:45:40;;;;;;;14.60;7.47;;;;;;;2.89;90.03;95782.59;10329983;28;20030;-73
2021/03/01 00:50:40;;;;;;;12.27;7.25;;;;;;;2.91;90.54;95777.88;10328700;28;20281;-73
2021/03/01 00:55:41;;;;;;;14.23;7.88;;;;;;;2.88;89.86;95772.97;10292532;28;20157;-73
2021/03/01 01:00:42;;;;;;;11.70;7.33;;;;;;;2.80;89.66;95765.19;10297667;28;20034;-73
2021/03/01 01:05:43;;;;;;;10.93;7.13;;;;;;;2.78;89.79;95761.09;10327404;28;20776;-73
2021/03/01 01:10:43;;;;;;;15.68;7.90;;;;;;;2.83;88.97;95759.50;10326917;28;20030;-73
2021/03/01 01:15:44;;;;;;;14.40;8.13;;;;;;;2.79;88.48;95754.78;10327980;28;20405;-73
2021/03/01 01:20:44;;;;;;;15.05;7.72;;;;;;;2.77;87.46;95752.31;10327107;28;20112;-74
2021/03/01 01:25:45;;;;;;;12.20;7.80;;;;;;;2.78;87.21;95747.81;10327708;28;20038;-74
2021/03/01 01:30:45;;;;;;;13.87;6.67;;;;;;;2.70;88.20;95741.66;10327898;28;20392;-73
2021/03/01 01:35:46;;;;;;;16.40;8.15;;;;;;;2.64;88.30;95731.84;10327358;28;20304;-73
2021/03/01 01:40:46;;;;;;;15.93;6.93;;;;;;;2.56;88.00;95737.34;10327073;28;20877;-73
2021/03/01 01:45:46;;;;;;;12.35;7.45;;;;;;;2.54;87.26;95734.88;10327228;28;20289;-73
2021/03/01 01:50:47;;;;;;;12.77;6.75;;;;;;;2.54;84.39;95745.50;10326942;28;20114;-72
2021/03/01 01:55:49;;;;;;;10.90;6.33;;;;;;;2.55;86.35;95743.66;10326351;28;20041;-73
2021/03/01 02:00:49;;;;;;;12.73;7.07;;;;;;;2.54;86.22;95734.03;10326134;28;20286;-73
2021/03/01 02:05:51;;;;;;;11.57;6.50;;;;;;;2.52;85.32;95733.44;10325518;28;20036;-73
2021/03/01 02:11:30;;;;;;;13.73;6.95;;;;;;;2.44;85.45;95736.25;10325961;28;20042;-73
2021/03/01 02:16:34;;;;;;;12.43;6.47;;;;;;;2.40;86.13;95738.50;10322428;28;20498;-73
2021/03/01 02:21:43;;;;;;;10.32;6.95;;;;;;;2.49;86.15;95733.84;10326101;28;20757;-72
2021/03/01 02:26:46;;;;;;;9.80;6.47;;;;;;;2.42;87.16;95741.75;10325166;28;20026;-72
2021/03/01 02:31:48;;;;;;;14.00;8.07;;;;;;;2.37;87.88;95730.91;10340034;28;20486;-72
2021/03/01 02:36:54;;;;;;;12.13;6.97;;;;;;;2.23;88.68;95727.38;10325343;28;20105;-72
2021/03/01 02:41:55;;;;;;;13.30;7.95;;;;;;;2.21;91.75;95729.41;10286942;28;20046;-72
2021/03/01 02:46:58;;;;;;;13.43;7.65;;;;;;;2.19;92.78;95720.81;10283871;28;20813;-72
2021/03/01 02:52:01;;;;;;;14.27;8.02;;;;;;;2.19;92.48;95726.97;10284058;28;20094;-72
2021/03/01 02:57:02;;;;;;;10.95;8.20;;;;;;;2.18;92.85;95725.31;10283642;28;20039;-72
2021/03/01 03:02:02;;;;;;;14.10;7.60;;;;;;;2.13;94.05;95718.97;10283624;28;20014;-72
2021/03/01 03:07:05;;;;;;;13.10;7.60;;;;;;;2.07;95.30;95717.09;10284335;28;20035;-72
2021/03/01 03:12:06;;;;;;;11.73;7.43;;;;;;;1.94;95.40;95717.81;10321957;28;20729;-73
2021/03/01 03:17:07;;;;;;;14.32;8.88;;;;;;;1.94;97.47;95716.00;10323588;28;20034;-72
2021/03/01 03:22:08;;;;;;;15.75;8.55;;;;;;;1.79;97.70;95717.94;10323707;28;20027;-72
2021/03/01 03:27:09;;;;;;;17.35;9.15;;;;;;;1.77;97.70;95712.00;10323304;28;20077;-72
2021/03/01 03:32:09;;;;;;;17.85;8.93;;;;;;;1.77;97.94;95712.81;10322954;28;20452;-72
2021/03/01 03:37:17;;;;;;;17.33;8.20;;;;;;;1.84;97.98;95711.06;10322949;28;20030;-73
2021/03/01 03:42:23;;;;;;;17.95;8.82;;;;;;;1.69;99.33;95710.34;10322960;28;20494;-72
2021/03/01 03:47:24;;;;;;;23.95;10.15;;;;;;;1.64;100.00;95713.56;10322465;28;20054;-72
2021/03/01 03:52:27;;;;;;;18.63;9.30;;;;;;;1.47;100.00;95715.66;10322880;28;20133;-73
2021/03/01 03:57:33;;;;;;;15.82;8.45;;;;;;;1.47;100.00;95705.06;10321885;28;20490;-72
2021/03/01 04:02:36;;;;;;;16.13;8.95;;;;;;;1.48;100.00;95711.19;10326068;28;20501;-73
2021/03/01 04:07:38;;;;;;;17.40;9.25;;;;;;;1.56;100.00;95711.03;10330801;28;20026;-73
2021/03/01 04:12:41;;;;;;;20.20;8.77;;;;;;;1.51;100.00;95710.81;10330572;28;20026;-73
2021/03/01 04:17:43;;;;;;;17.27;8.88;;;;;;;1.53;100.00;95709.63;10330043;28;20037;-73
2021/03/01 04:22:44;;;;;;;15.18;8.68;;;;;;;1.52;100.00;95710.63;10329735;28;20030;-73
2021/03/01 04:27:45;;;;;;;23.27;10.82;;;;;;;1.47;100.00;95717.50;10329444;28;20034;-72
2021/03/01 04:32:47;;;;;;;23.83;9.02;;;;;;;1.47;100.00;95718.31;10298655;28;20023;-73
2021/03/01 04:37:47;;;;;;;16.58;9.35;;;;;;;1.53;100.00;95714.91;10289186;28;20465;-73
2021/03/01 04:42:49;;;;;;;17.08;9.18;;;;;;;1.48;100.00;95712.03;10289623;28;20034;-73
2021/03/01 04:47:51;;;;;;;18.10;10.10;;;;;;;1.51;100.00;95714.28;10288928;28;20468;-73
2021/03/01 04:52:51;;;;;;;26.40;10.18;;;;;;;1.45;100.00;95717.72;10288587;28;20058;-73
2021/03/01 04:57:55;;;;;;;29.10;9.55;;;;;;;1.53;100.00;95714.91;10288835;28;20570;-73
2021/03/01 05:02:56;;;;;;;19.33;10.38;;;;;;;1.53;100.00;95717.56;10288273;28;20025;-72
2021/03/01 05:08:02;;;;;;;22.63;10.63;;;;;;;1.58;100.00;95721.44;10287212;28;20030;-73
2021/03/01 05:13:03;;;;;;;24.95;11.43;;;;;;;1.56;100.00;95728.78;10294937;28;20041;-73
2021/03/01 05:18:03;;;;;;;18.33;10.98;;;;;;;1.66;100.00;95731.91;10287267;28;20027;-73
2021/03/01 05:23:05;;;;;;;23.35;11.40;;;;;;;1.43;100.00;95738.25;10306009;28;20050;-73
2021/03/01 05:28:05;;;;;;;23.67;10.88;;;;;;;1.45;100.00;95743.34;10307533;28;20118;-73
2021/03/01 05:33:06;;;;;;;23.80;11.13;;;;;;;1.45;100.00;95743.34;10299175;28;20030;-73
2021/03/01 05:38:06;;;;;;;24.88;11.55;;;;;;;1.67;99.26;95750.25;10327001;28;20057;-75
2021/03/01 05:43:08;;;;;;;24.02;12.18;;;;;;;1.93;99.56;95748.03;10326335;28;20805;-73
2021/03/01 05:48:10;;;;;;;38.78;14.13;;;;;;;2.23;97.79;95753.91;10326135;28;20438;-73
2021/03/01 05:53:17;;;;;;;26.35;13.38;;;;;;;2.61;97.01;95747.34;10326481;28;20058;-73
2021/03/01 05:58:18;;;;;;;44.53;14.68;;;;;;;3.19;94.18;95738.94;10304790;28;20066;-73
2021/03/01 06:03:19;;;;;;;25.77;12.98;;;;;;;3.68;87.56;95734.28;10285469;28;20113;-73
2021/03/01 06:08:20;;;;;;;39.15;14.27;;;;;;;4.22;88.92;95732.38;10302993;28;20034;-73
2021/03/01 06:13:21;;;;;;;27.38;12.43;;;;;;;4.65;89.81;95729.19;10324119;28;20058;-73
2021/03/01 06:18:22;;;;;;;24.27;11.97;;;;;;;5.37;81.84;95712.19;10298521;28;20121;-73
2021/03/01 06:23:33;;;;;;;22.27;11.57;;;;;;;6.15;76.65;95689.59;10299288;28;20030;-73
2021/03/01 06:28:33;;;;;;;32.88;11.23;;;;;;;6.82;69.08;95689.63;10323661;28;20037;-73
2021/03/01 06:33:34;;;;;;;23.30;11.90;;;;;;;7.49;62.56;95679.84;10324878;28;20030;-73
2021/03/01 06:38:35;;;;;;;25.80;12.60;;;;;;;8.24;58.32;95662.28;10322593;28;20296;-73
2021/03/01 06:43:38;;;;;;;27.08;11.75;;;;;;;9.00;54.06;95664.06;10323476;28;20048;-73
2021/03/01 06:48:40;;;;;;;19.48;12.60;;;;;;;10.59;49.38;95668.41;10324179;28;20141;-73
2021/03/01 06:53:40;;;;;;;24.45;13.02;;;;;;;11.40;46.36;95673.06;10293561;28;20479;-74
2021/03/01 06:58:45;;;;;;;18.05;11.55;;;;;;;11.88;44.46;95683.16;10282186;28;20034;-73
2021/03/01 07:03:50;;;;;;;23.10;12.10;;;;;;;12.44;42.33;95682.75;10283215;28;20019;-74
2021/03/01 07:08:53;;;;;;;24.85;11.32;;;;;;;12.82;40.94;95692.38;10282939;28;20038;-73
2021/03/01 07:13:57;;;;;;;19.98;9.55;;;;;;;12.48;42.00;95698.13;10322413;28;20339;-73
2021/03/01 07:18:58;;;;;;;29.73;11.20;;;;;;;12.46;42.27;95708.38;10322662;28;20542;-73
2021/03/01 07:23:59;;;;;;;24.13;11.52;;;;;;;11.39;44.77;95725.25;10323249;28;20023;-73
2021/03/01 07:29:13;;;;;;;19.80;10.68;;;;;;;11.20;44.97;95721.28;10322282;28;20081;-73
2021/03/01 07:34:15;;;;;;;23.00;11.13;;;;;;;11.09;45.71;95731.13;10322371;28;20038;-73
2021/03/01 07:39:17;;;;;;;25.95;10.73;;;;;;;11.87;43.72;95727.31;10322462;28;20084;-72
2021/03/01 07:44:47;;;;;;;30.75;10.27;;;;;;;12.05;43.20;95721.56;10321567;28;20806;-73
2021/03/01 07:49:49;;;;;;;23.63;11.27;;;;;;;12.12;43.85;95724.84;10282051;28;20102;-73
2021/03/01 07:54:58;;;;;;;26.95;14.05;;;;;;;10.96;45.36;95729.63;10282180;28;20188;-72
2021/03/01 08:00:19;;;;;;;18.83;11.13;;;;;;;11.58;44.51;95711.44;10282103;28;20038;-73
2021/03/01 08:05:22;;;;;;;20.90;10.75;;;;;;;12.10;43.31;95720.81;10281976;28;20058;-73
2021/03/01 08:10:29;;;;;;;20.95;11.35;;;;;;;11.14;44.52;95712.34;10293378;28;20039;-73
2021/03/01 08:15:38;;;;;;;25.27;10.95;;;;;;;11.88;43.81;95718.19;10321427;28;20140;-73
2021/03/01 08:20:44;;;;;;;22.23;11.02;;;;;;;11.37;44.88;95722.03;10321926;28;20038;-73
2021/03/01 08:30:46;;;;;;;19.58;10.27;;;;;;;8.08;56.20;95727.25;10322233;28;20033;-72
2021/03/01 08:35:46;;;;;;;24.02;12.00;;;;;;;9.26;53.03;95700.22;10321585;28;20035;-73
2021/03/01 08:40:56;;;;;;;18.97;10.60;;;;;;;9.60;52.56;95711.00;10321331;28;20054;-72
2021/03/01 08:45:57;;;;;;;19.83;10.60;;;;;;;11.79;46.50;95707.03;10322151;28;20034;-72
2021/03/01 08:50:58;;;;;;;29.48;11.15;;;;;;;12.38;43.15;95692.69;10325208;28;20030;-72
2021/03/01 08:55:59;;;;;;;20.50;9.53;;;;;;;14.44;39.42;95694.97;10328483;28;20030;-73
2021/03/01 09:01:02;;;;;;;20.90;9.15;;;;;;;15.82;36.95;95682.75;10298924;28;20737;-73
2021/03/01 09:06:04;;;;;;;14.52;8.13;;;;;;;15.69;35.63;95677.94;10299051;28;20034;-72
2021/03/01 09:11:10;;;;;;;16.90;8.48;;;;;;;14.86;36.00;95691.09;10323133;28;20042;-72
2021/03/01 09:16:13;;;;;;;15.60;8.25;;;;;;;13.57;38.72;95701.25;10287989;28;20031;-73
2021/03/01 09:21:17;;;;;;;19.75;9.02;;;;;;;13.10;39.64;95686.78;10287197;28;20774;-72
2021/03/01 09:26:18;;;;;;;18.00;8.80;;;;;;;13.09;40.28;95693.25;10311595;28;20028;-73
2021/03/01 09:31:19;;;;;;;27.00;9.20;;;;;;;13.27;39.81;95695.50;10328160;28;20026;-73
2021/03/01 09:36:20;;;;;;;16.20;8.27;;;;;;;13.34;38.19;95689.84;10326767;28;20058;-73
2021/03/01 09:41:21;;;;;;;16.38;8.20;;;;;;;13.02;39.21;95685.44;10320220;28;20071;-73
2021/03/01 09:46:21;;;;;;;16.70;8.27;;;;;;;13.19;38.21;95693.31;10286941;28;20030;-73
2021/03/01 09:51:23;;;;;;;15.35;7.75;;;;;;;13.29;38.19;95696.00;10286301;28;20037;-73
2021/03/01 09:56:57;;;;;;;13.30;6.82;;;;;;;13.84;38.10;95691.00;10286339;28;20026;-73
2021/03/01 10:02:19;;;;;;;17.27;7.15;;;;;;;14.93;35.77;95690.81;10285776;28;20043;-74
2021/03/01 10:07:25;;;;;;;15.65;6.57;;;;;;;15.05;35.30;95685.88;10286311;28;20038;-73
2021/03/01 10:12:26;;;;;;;14.35;6.70;;;;;;;14.23;35.97;95686.91;10291121;28;20043;-73
2021/03/01 10:17:34;;;;;;;15.30;7.57;;;;;;;14.85;34.68;95686.78;10283598;28;20034;-73
2021/03/01 10:23:06;;;;;;;12.35;7.55;;;;;;;15.60;34.24;95685.03;10285806;28;20111;-73
2021/03/01 10:28:27;;;;;;;14.77;7.32;;;;;;;14.94;33.84;95670.78;10283585;28;20038;-74
2021/03/01 10:33:27;;;;;;;16.55;7.60;;;;;;;16.21;32.88;95668.31;10283592;28;20035;-72
2021/03/01 10:38:27;;;;;;;16.75;6.72;;;;;;;15.88;32.30;95657.19;10284480;28;20055;-72
2021/03/01 10:43:28;;;;;;;21.13;9.17;;;;;;;16.04;33.25;95646.22;10284170;28;20135;-73
2021/03/01 10:48:43;;;;;;;13.37;7.47;;;;;;;18.97;30.36;95629.44;10283405;28;20027;-72
2021/03/01 10:53:43;;;;;;;12.95;7.18;;;;;;;17.72;29.75;95621.88;10283738;28;20305;-72
2021/03/01 10:58:45;;;;;;;12.87;6.80;;;;;;;15.06;34.26;95637.94;10283545;28;20054;-72
2021/03/01 11:03:46;;;;;;;13.35;6.70;;;;;;;16.80;31.14;95629.41;10283529;28;20410;-72
2021/03/01 11:08:46;;;;;;;14.02;7.53;;;;;;;17.19;30.87;95629.19;10282545;28;20031;-73
2021/03/01 11:13:46;;;;;;;12.43;7.40;;;;;;;14.94;33.16;95630.97;10320810;28;20391;-72
2021/03/01 11:18:47;;;;;;;17.90;7.57;;;;;;;12.49;36.35;95634.25;10321687;28;20524;-72
2021/03/01 11:23:47;;;;;;;17.10;8.02;;;;;;;12.44;37.89;95626.94;10322390;28;20284;-73
2021/03/01 11:28:48;;;;;;;15.55;7.32;;;;;;;11.94;38.34;95622.88;10306275;28;20459;-72
2021/03/01 11:33:49;;;;;;;14.03;9.00;;;;;;;11.19;41.04;95631.69;10282455;28;20050;-72
2021/03/01 11:38:49;;;;;;;16.85;9.20;;;;;;;11.05;40.49;95617.84;10280503;28;20294;-73
2021/03/01 11:43:50;;;;;;;17.43;7.80;;;;;;;10.50;41.81;95627.72;10282425;28;20772;-73
2021/03/01 11:48:50;;;;;;;14.40;7.35;;;;;;;10.38;40.13;95629.72;10282260;28;20046;-73
2021/03/01 11:53:52;;;;;;;9.88;5.50;;;;;;;10.41;39.42;95635.41;10282414;28;20026;-73
2021/03/01 11:58:52;;;;;;;11.45;6.20;;;;;;;10.19;39.52;95634.56;10282289;28;20529;-73
2021/03/01 12:03:53;;;;;;;13.23;5.88;;;;;;;10.13;40.84;95628.31;10282150;28;20022;-73
2021/03/01 12:08:53;;;;;;;9.93;6.00;;;;;;;9.93;41.29;95634.19;10280491;28;20039;-73
2021/03/01 12:13:53;;;;;;;18.10;7.30;;;;;;;9.76;42.13;95655.69;10321605;28;20040;-73
2021/03/01 12:18:54;;;;;;;12.13;6.90;;;;;;;9.71;42.28;95659.13;10321747;28;20265;-73
2021/03/01 12:23:54;;;;;;;15.43;6.60;;;;;;;9.47;43.70;95660.31;10324317;28;20029;-73
2021/03/01 12:28:55;;;;;;;16.92;6.28;;;;;;;9.32;44.33;95656.34;10330149;28;20023;-73
2021/03/01 12:33:55;;;;;;;12.70;6.40;;;;;;;9.13;45.06;95669.13;10329648;28;20030;-73
2021/03/01 12:38:56;;;;;;;12.93;7.22;;;;;;;8.82;46.69;95683.81;10329470;28;20042;-72
2021/03/01 12:43:56;;;;;;;17.40;7.80;;;;;;;8.85;46.48;95694.91;10329374;28;20030;-73
2021/03/01 12:48:57;;;;;;;15.77;8.25;;;;;;;8.77;47.14;95689.09;10329031;28;20038;-73
2021/03/01 12:53:57;;;;;;;16.85;8.80;;;;;;;8.66;48.69;95688.88;10328203;28;20561;-73
2021/03/01 12:58:58;;;;;;;22.52;7.95;;;;;;;8.66;49.35;95685.41;10328195;28;20026;-73
2021/03/01 13:03:59;;;;;;;14.82;9.32;;;;;;;8.62;49.28;95698.44;10321736;28;20027;-73
2021/03/01 13:08:59;;;;;;;15.25;8.18;;;;;;;8.49;50.26;95712.91;10287883;28;20379;-73
2021/03/01 13:14:00;;;;;;;22.45;8.48;;;;;;;8.48;50.83;95721.19;10328479;28;20035;-73
2021/03/01 13:19:01;;;;;;;23.38;9.85;;;;;;;8.18;52.66;95728.28;10327702;28;20493;-73
2021/03/01 13:24:01;;;;;;;16.60;8.70;;;;;;;8.07;52.70;95729.13;10326157;28;20105;-73
2021/03/01 13:29:02;;;;;;;15.27;8.20;;;;;;;8.00;53.38;95731.91;10326523;28;20116;-73
2021/03/01 13:34:02;;;;;;;14.98;8.77;;;;;;;7.79;54.74;95737.81;10326675;28;20031;-73
2021/03/01 13:39:03;;;;;;;14.25;9.63;;;;;;;7.77;55.31;95748.75;10325176;28;20481;-73
2021/03/01 13:44:04;;;;;;;19.92;9.73;;;;;;;7.56;58.42;95741.25;10327094;28;20109;-73
2021/03/01 13:49:04;;;;;;;17.38;8.60;;;;;;;7.69;57.56;95749.09;10326734;28;20026;-72
2021/03/01 13:54:05;;;;;;;15.88;10.05;;;;;;;7.59;58.97;95751.50;10324936;28;20042;-72
2021/03/01 13:59:05;;;;;;;12.95;9.10;;;;;;;7.51;57.95;95763.34;10325831;28;20124;-72
2021/03/01 14:04:06;;;;;;;15.18;8.25;;;;;;;7.46;55.72;95764.00;10326140;28;20109;-72
2021/03/01 14:09:07;;;;;;;16.13;8.50;;;;;;;7.60;55.04;95764.63;10325686;28;20481;-72
2021/03/01 14:14:07;;;;;;;18.60;9.77;;;;;;;7.59;54.81;95772.91;10325309;28;20478;-72
2021/03/01 14:19:08;;;;;;;19.30;10.70;;;;;;;7.59;55.20;95767.53;10325562;28;20030;-72
2021/03/01 14:24:08;;;;;;;15.82;9.65;;;;;;;7.53;55.20;95775.47;10324632;28;20086;-73
2021/03/01 14:29:09;;;;;;;16.85;9.52;;;;;;;7.55;57.06;95777.91;10322724;28;20034;-72
2021/03/01 14:34:10;;;;;;;19.48;10.32;;;;;;;7.57;57.37;95791.84;10324517;28;20119;-72
2021/03/01 14:39:11;;;;;;;27.05;11.05;;;;;;;7.50;57.59;95788.47;10324351;28;20081;-72
2021/03/01 14:44:11;;;;;;;14.15;9.15;;;;;;;7.50;59.60;95796.47;10323265;28;20034;-71
2021/03/01 14:49:13;;;;;;;20.48;8.95;;;;;;;7.27;62.28;95802.53;10323439;28;20125;-72
2021/03/01 14:54:13;;;;;;;22.00;8.40;;;;;;;7.23;63.03;95804.03;10321694;28;20035;-73
2021/03/01 14:59:14;;;;;;;10.95;5.80;;;;;;;7.10;63.30;95810.38;10322805;28;20030;-73
2021/03/01 15:04:14;;;;;;;10.43;5.43;;;;;;;7.13;64.85;95817.94;10323740;28;20480;-72
2021/03/01 15:09:14;;;;;;;14.27;7.18;;;;;;;6.89;68.59;95823.13;10320194;28;20039;-73
2021/03/01 15:14:15;;;;;;;10.02;5.43;;;;;;;6.58;69.46;95830.25;10282144;28;20113;-73
2021/03/01 15:19:15;;;;;;;10.25;6.05;;;;;;;6.59;70.92;95833.75;10282905;28;20466;-73
2021/03/01 15:24:16;;;;;;;13.15;7.28;;;;;;;6.29;74.74;95845.94;10282049;28;20465;-74
2021/03/01 15:29:17;;;;;;;14.23;5.95;;;;;;;6.25;75.80;95841.22;10282331;28;20034;-73
2021/03/01 15:34:17;;;;;;;17.05;7.00;;;;;;;6.24;76.81;95850.28;10301306;28;20097;-73
2021/03/01 15:39:18;;;;;;;17.35;7.32;;;;;;;6.16;78.41;95856.69;10321199;28;20046;-73
2021/03/01 15:44:18;;;;;;;11.60;6.70;;;;;;;5.95;79.07;95864.00;10322541;28;20041;-73
2021/03/01 15:49:19;;;;;;;15.55;6.25;;;;;;;5.81;80.17;95873.13;10321010;28;20031;-73
2021/03/01 15:54:19;;;;;;;11.95;7.05;;;;;;;5.76;81.45;95880.94;10318139;28;20149;-73
2021/03/01 15:59:20;;;;;;;12.75;6.53;;;;;;;5.63;82.33;95884.53;10326337;28;20714;-73
2021/03/01 16:04:20;;;;;;;15.32;6.32;;;;;;;5.60;82.42;95892.94;10330333;28;20038;-73
2021/03/01 16:09:21;;;;;;;14.32;6.43;;;;;;;5.60;82.57;95896.44;10328395;28;20025;-73
2021/03/01 16:14:21;;;;;;;12.63;6.35;;;;;;;5.42;84.17;95904.31;10304161;28;20030;-73
2021/03/01 16:19:22;;;;;;;11.15;7.30;;;;;;;5.45;84.50;95909.22;10289337;28;20033;-73
2021/03/01 16:24:22;;;;;;;13.35;7.00;;;;;;;5.47;84.40;95923.16;10290086;28;20031;-73
2021/03/01 16:29:23;;;;;;;17.35;6.72;;;;;;;5.45;84.57;95926.00;10289431;28;20482;-73
2021/03/01 16:34:24;;;;;;;20.77;7.32;;;;;;;5.30;85.98;95934.28;10288631;28;20041;-72
2021/03/01 16:39:25;;;;;;;13.85;7.10;;;;;;;5.31;87.33;95941.25;10289277;28;20066;-72
2021/03/01 16:44:27;;;;;;;14.30;6.80;;;;;;;5.36;86.12;95940.63;10288554;28;20102;-72
2021/03/01 16:49:29;;;;;;;17.30;7.45;;;;;;;5.31;86.44;95943.91;10288004;28;20030;-72
2021/03/01 16:54:30;;;;;;;11.90;6.90;;;;;;;5.13;89.32;95951.75;10287229;28;20049;-76
2021/03/01 16:59:31;;;;;;;15.23;8.05;;;;;;;5.06;89.31;95961.59;10289058;28;20030;-76
2021/03/01 17:04:32;;;;;;;19.65;7.70;;;;;;;4.86;90.04;95975.78;10288454;28;20023;-73
2021/03/01 17:09:39;;;;;;;16.77;8.00;;;;;;;4.70;91.66;95977.03;10288742;28;20812;-76
2021/03/01 17:14:50;;;;;;;14.90;7.65;;;;;;;4.58;94.08;95990.13;10287475;28;20034;-76
2021/03/01 17:19:52;;;;;;;13.05;7.75;;;;;;;4.49;95.45;95988.66;10287631;28;20831;-76
2021/03/01 17:24:54;;;;;;;18.92;8.15;;;;;;;4.39;97.42;95988.25;10287973;28;20026;-77
2021/03/01 17:29:54;;;;;;;12.45;7.68;;;;;;;4.39;97.54;95991.72;10287106;28;20383;-77
2021/03/01 17:34:55;;;;;;;14.80;7.60;;;;;;;4.45;98.84;95998.06;10286440;28;20030;-76
2021/03/01 17:39:56;;;;;;;17.50;8.13;;;;;;;4.31;99.35;95991.09;10287579;28;20055;-74
2021/03/01 17:44:57;;;;;;;12.35;7.50;;;;;;;4.20;99.79;95996.00;10286440;28;20031;-73
2021/03/01 17:49:58;;;;;;;13.65;7.60;;;;;;;4.25;99.68;95998.88;10286616;28;20038;-73
2021/03/01 17:55:22;;;;;;;17.00;9.77;;;;;;;4.07;100.00;95993.31;10286623;28;20034;-73
2021/03/01 18:00:26;;;;;;;23.30;10.88;;;;;;;3.92;100.00;95996.13;10285932;28;20034;-73
2021/03/01 18:05:27;;;;;;;26.42;11.27;;;;;;;3.86;100.00;96004.91;10285946;28;20470;-73
2021/03/01 18:10:29;;;;;;;23.90;11.45;;;;;;;3.86;100.00;96003.06;10296531;28;20033;-73
2021/03/01 18:15:30;;;;;;;19.63;10.60;;;;;;;3.86;100.00;96008.38;10285966;28;20073;-73
2021/03/01 18:20:32;;;;;;;26.75;12.43;;;;;;;3.95;100.00;96011.72;10284790;28;20058;-74
2021/03/01 18:25:33;;;;;;;22.73;11.32;;;;;;;3.96;100.00;96013.31;10284849;28;20035;-73
2021/03/01 18:30:34;;;;;;;20.90;10.90;;;;;;;3.84;100.00;96020.25;10285309;28;20059;-73
2021/03/01 18:35:42;;;;;;;18.17;10.32;;;;;;;3.86;100.00;96026.19;10284561;28;20538;-74
2021/03/01 18:40:48;;;;;;;19.13;9.57;;;;;;;3.52;100.00;96033.19;10284848;28;20565;-73
2021/03/01 18:45:51;;;;;;;20.20;9.57;;;;;;;3.40;100.00;96040.88;10283580;28;20034;-74
2021/03/01 18:50:52;;;;;;;14.50;8.40;;;;;;;3.27;100.00;96040.81;10282964;28;20062;-73
2021/03/01 18:55:53;;;;;;;19.02;9.88;;;;;;;3.27;100.00;96036.31;10284120;28;20041;-73
2021/03/01 19:00:53;;;;;;;21.13;8.70;;;;;;;3.23;100.00;96040.38;10284262;28;20409;-73
2021/03/01 19:05:54;;;;;;;15.50;8.63;;;;;;;3.22;100.00;96046.69;10283735;28;20278;-73
2021/03/01 19:10:54;;;;;;;15.93;7.90;;;;;;;3.18;100.00;96054.25;10299112;28;20045;-73
2021/03/01 19:15:55;;;;;;;20.25;9.90;;;;;;;3.23;100.00;96058.97;10323690;28;20041;-73
2021/03/01 19:20:56;;;;;;;14.57;8.32;;;;;;;3.24;100.00;96065.94;10323507;28;20893;-73
2021/03/01 19:25:57;;;;;;;14.82;8.02;;;;;;;3.03;100.00;96070.28;10322685;28;20049;-73
2021/03/01 19:30:57;;;;;;;13.57;8.33;;;;;;;2.88;100.00;96088.94;10323543;28;20088;-73
2021/03/01 19:35:57;;;;;;;17.87;8.43;;;;;;;2.99;100.00;96094.78;10322140;28;20148;-74
2021/03/01 19:40:58;;;;;;;11.68;7.35;;;;;;;2.83;100.00;96091.38;10322119;28;20302;-73
2021/03/01 19:45:58;;;;;;;14.75;7.72;;;;;;;2.87;100.00;96102.41;10305647;28;20766;-73
2021/03/01 19:50:59;;;;;;;14.80;8.13;;;;;;;2.93;100.00;96108.78;10281816;28;20121;-73
2021/03/01 19:55:59;;;;;;;16.45;8.38;;;;;;;2.94;100.00;96110.44;10280505;28;20065;-74
2021/03/01 20:01:00;;;;;;;15.80;8.63;;;;;;;2.93;100.00;96116.75;10298744;28;20038;-73
2021/03/01 20:06:00;;;;;;;21.02;11.65;;;;;;;2.86;100.00;96112.22;10322117;28;20030;-73
2021/03/01 20:11:01;;;;;;;19.55;10.52;;;;;;;2.89;100.00;96135.72;10320852;28;20023;-73
2021/03/01 20:16:02;;;;;;;29.02;11.82;;;;;;;2.90;100.00;96145.34;10300268;28;20034;-73
2021/03/01 20:21:03;;;;;;;20.85;10.23;;;;;;;3.00;100.00;96138.88;10281657;28;20034;-73
2021/03/01 20:26:04;;;;;;;17.60;10.02;;;;;;;2.91;100.00;96146.97;10303211;28;20031;-73
2021/03/01 20:31:05;;;;;;;19.52;10.07;;;;;;;2.83;100.00;96144.47;10321325;28;20442;-73
2021/03/01 20:36:06;;;;;;;18.75;9.60;;;;;;;2.87;100.00;96158.16;10322150;28;20117;-73
2021/03/01 20:41:07;;;;;;;18.25;9.07;;;;;;;2.81;100.00;96148.31;10321423;28;20413;-73
2021/03/01 20:46:07;;;;;;;13.95;9.43;;;;;;;2.77;100.00;96160.34;10325847;28;20091;-73
2021/03/01 20:51:08;;;;;;;15.57;8.40;;;;;;;2.79;100.00;96155.63;10329197;28;20449;-73
2021/03/01 20:56:09;;;;;;;18.90;9.73;;;;;;;2.79;100.00;96152.97;10328832;28;20328;-73
2021/03/01 21:01:09;;;;;;;21.75;8.90;;;;;;;2.70;100.00;96147.78;10311039;28;20057;-73
2021/03/01 21:06:10;;;;;;;16.35;9.50;;;;;;;2.58;100.00;96154.59;10288474;28;20105;-73
2021/03/01 21:11:11;;;;;;;21.38;10.45;;;;;;;2.31;100.00;96158.78;10305964;28;20034;-74
2021/03/01 21:16:13;;;;;;;32.25;13.82;;;;;;;2.03;100.00;96159.47;10327569;28;20039;-73
2021/03/01 21:21:15;;;;;;;23.17;13.07;;;;;;;2.12;100.00;96168.13;10328046;28;20552;-74
2021/03/01 21:26:17;;;;;;;38.00;19.70;;;;;;;2.03;100.00;96167.44;10327972;28;20778;-74
2021/03/01 21:31:18;;;;;;;38.33;18.95;;;;;;;1.99;100.00;96177.56;10327768;28;20113;-72
2021/03/01 21:36:20;;;;;;;35.13;17.40;;;;;;;2.01;100.00;96172.91;10327366;28;20402;-74
2021/03/01 21:41:22;;;;;;;46.10;19.60;;;;;;;2.07;100.00;96178.50;10326898;28;20058;-73
2021/03/01 21:46:23;;;;;;;25.63;13.65;;;;;;;2.04;100.00;96185.78;10327165;28;20661;-73
2021/03/01 21:51:28;;;;;;;25.42;13.05;;;;;;;2.12;100.00;96189.34;10327415;28;20034;-72
2021/03/01 21:56:28;;;;;;;30.70;14.05;;;;;;;2.19;100.00;96198.22;10326332;28;20034;-73
2021/03/01 22:01:29;;;;;;;28.65;14.05;;;;;;;2.22;100.00;96206.66;10325565;28;20018;-72
2021/03/01 22:06:32;;;;;;;30.98;15.23;;;;;;;2.06;100.00;96209.47;10326875;28;20037;-72
2021/03/01 22:11:33;;;;;;;25.83;15.05;;;;;;;1.84;100.00;96212.03;10326156;28;20026;-72
2021/03/01 22:16:33;;;;;;;36.00;18.85;;;;;;;1.75;100.00;96199.06;10325374;28;20026;-72
2021/03/01 22:21:34;;;;;;;40.67;16.65;;;;;;;1.78;100.00;96202.16;10326197;28;20030;-72
2021/03/01 22:26:39;;;;;;;38.90;17.88;;;;;;;1.74;100.00;96211.47;10325455;28;20030;-73
2021/03/01 22:31:43;;;;;;;38.92;21.50;;;;;;;1.65;100.00;96207.28;10325566;28;20057;-72
2021/03/01 22:36:46;;;;;;;56.50;24.77;;;;;;;1.76;100.00;96212.13;10325599;28;20030;-73
2021/03/01 22:41:48;;;;;;;61.53;24.73;;;;;;;2.06;100.00;96222.75;10325180;28;20058;-73
2021/03/01 22:46:54;;;;;;;67.25;26.30;;;;;;;2.19;100.00;96224.75;10306799;28;20109;-73
2021/03/01 22:51:55;;;;;;;58.08;29.13;;;;;;;1.92;100.00;96219.06;10284388;28;20030;-73
2021/03/01 22:56:57;;;;;;;66.45;32.20;;;;;;;1.77;100.00;96219.03;10284655;28;20033;-73
2021/03/01 23:01:58;;;;;;;70.85;33.72;;;;;;;1.84;100.00;96220.00;10293693;28;20031;-73
2021/03/01 23:06:59;;;;;;;71.20;35.47;;;;;;;1.74;100.00;96211.47;10283032;28;20030;-73
2021/03/01 23:11:59;;;;;;;74.90;33.58;;;;;;;1.87;100.00;96211.66;10308387;28;20273;-73
2021/03/01 23:17:00;;;;;;;66.78;33.40;;;;;;;1.97;100.00;96232.63;10324194;28;20041;-73